Time;durP1;ratioP1;P1;durP2;ratioP2;P2;SDS_P1;SDS_P2;PMS_P1;PMS_P2;Temp;Humidity;BMP_temperature;BMP_pressure;BME280_temperature;BME280_humidity;BME280_pressure;Samples;Min_cycle;Max_cycle;Signal;HPM_P1;HPM_P2
2024/01/16 00:00:43;;;;;;;5.10;4.33;;;;;;;;;;5003093;28;20180;-84
2024/01/16 00:03:08;;;;;;;7.10;5.50;;;;;;;;;;4988894;28;20284;-85
2024/01/16 00:05:34;;;;;;;8.13;5.27;;;;;;;;;;4979881;28;20207;-84
2024/01/16 00:07:59;;;;;;;7.40;5.57;;;;;;;;;;4989515;28;20185;-85
2024/01/16 00:10:25;;;;;;;7.03;4.97;;;;;;;;;;4987871;28;20207;-85
2024/01/16 00:12:50;;;;;;;8.37;5.40;;;;;;;;;;4986319;28;20227;-85
2024/01/16 00:15:15;;;;;;;8.40;5.20;;;;;;;;;;4980047;28;20192;-84
2024/01/16 00:17:40;;;;;;;6.03;4.80;;;;;;;;;;5000455;28;20184;-84
2024/01/16 00:20:06;;;;;;;7.00;5.33;;;;;;;;;;4989999;28;20263;-84
2024/01/16 00:22:31;;;;;;;6.50;5.67;;;;;;;;;;4983076;28;20181;-84
2024/01/16 00:24:57;;;;;;;9.93;6.47;;;;;;;;;;4990217;28;20235;-85
2024/01/16 00:27:22;;;;;;;6.03;5.43;;;;;;;;;;4989429;28;20172;-83
2024/01/16 00:29:47;;;;;;;8.00;5.13;;;;;;;;;;4987678;28;20543;-85
2024/01/16 00:32:15;;;;;;;6.87;5.57;;;;;;;;;;4992333;28;20192;-84
2024/01/16 00:34:41;;;;;;;7.13;4.87;;;;;;;;;;5004335;28;20231;-84
2024/01/16 00:37:06;;;;;;;6.63;5.00;;;;;;;;;;4994767;28;20234;-84
2024/01/16 00:39:31;;;;;;;7.83;5.40;;;;;;;;;;4990715;28;20192;-85
2024/01/16 00:41:58;;;;;;;7.43;5.43;;;;;;;;;;4987426;28;20204;-84
2024/01/16 00:44:23;;;;;;;5.80;5.30;;;;;;;;;;4988895;28;20219;-85
2024/01/16 00:46:48;;;;;;;6.87;4.83;;;;;;;;;;4985256;28;20187;-84
2024/01/16 00:49:14;;;;;;;9.10;5.27;;;;;;;;;;4990451;28;20187;-84
2024/01/16 00:51:39;;;;;;;6.77;4.73;;;;;;;;;;4986614;28;20203;-84
2024/01/16 00:54:07;;;;;;;8.53;5.53;;;;;;;;;;4990634;28;20247;-84
2024/01/16 00:56:34;;;;;;;6.80;4.40;;;;;;;;;;5007403;28;20171;-84
2024/01/16 00:58:59;;;;;;;6.43;4.77;;;;;;;;;;4986648;28;20180;-85
2024/01/16 01:01:24;;;;;;;12.70;6.43;;;;;;;;;;4989457;28;20260;-84
2024/01/16 01:03:50;;;;;;;8.00;5.77;;;;;;;;;;5004269;28;20211;-85
2024/01/16 01:06:15;;;;;;;6.40;4.83;;;;;;;;;;4990341;28;20179;-85
2024/01/16 01:08:41;;;;;;;7.27;4.77;;;;;;;;;;5001394;28;20180;-83
2024/01/16 01:11:06;;;;;;;7.63;4.70;;;;;;;;;;4995483;28;20229;-84
2024/01/16 01:13:31;;;;;;;8.60;4.80;;;;;;;;;;4989505;28;20188;-84
2024/01/16 01:15:56;;;;;;;6.83;4.80;;;;;;;;;;4991756;28;20219;-84
2024/01/16 01:18:22;;;;;;;8.33;5.20;;;;;;;;;;4990023;28;20271;-85
2024/01/16 01:20:47;;;;;;;7.40;5.00;;;;;;;;;;4990541;28;20222;-84
2024/01/16 01:23:13;;;;;;;10.93;5.67;;;;;;;;;;4989628;28;20188;-84
2024/01/16 01:25:38;;;;;;;7.20;5.43;;;;;;;;;;5000209;28;20181;-84
2024/01/16 01:28:03;;;;;;;12.57;5.97;;;;;;;;;;4991138;28;20185;-84
2024/01/16 01:30:28;;;;;;;6.57;5.80;;;;;;;;;;4988858;28;20188;-84
2024/01/16 01:32:54;;;;;;;6.83;5.77;;;;;;;;;;4992163;28;20184;-85
2024/01/16 01:35:19;;;;;;;8.17;5.30;;;;;;;;;;4980372;28;20208;-84
2024/01/16 01:37:45;;;;;;;15.53;7.47;;;;;;;;;;4990475;28;20290;-84
2024/01/16 01:40:12;;;;;;;7.00;5.33;;;;;;;;;;4989761;28;20188;-83
2024/01/16 01:42:37;;;;;;;8.97;6.10;;;;;;;;;;4984028;28;20180;-84
2024/01/16 01:45:03;;;;;;;7.97;5.23;;;;;;;;;;4993491;28;20189;-84
2024/01/16 01:47:29;;;;;;;11.93;5.93;;;;;;;;;;4983067;28;20184;-84
2024/01/16 01:49:54;;;;;;;8.70;6.00;;;;;;;;;;4986721;28;20204;-85
2024/01/16 01:52:20;;;;;;;6.73;5.17;;;;;;;;;;4995246;28;20192;-84
2024/01/16 01:54:45;;;;;;;7.37;4.70;;;;;;;;;;4990646;28;20223;-83
2024/01/16 01:57:10;;;;;;;10.13;5.63;;;;;;;;;;4990393;28;20180;-85
2024/01/16 01:59:36;;;;;;;10.87;6.43;;;;;;;;;;4984447;28;20177;-84
2024/01/16 02:02:02;;;;;;;7.30;5.40;;;;;;;;;;4998749;28;20238;-84
2024/01/16 02:04:28;;;;;;;7.03;5.40;;;;;;;;;;4986539;28;20184;-85
2024/01/16 02:06:54;;;;;;;7.07;6.17;;;;;;;;;;4991717;28;20180;-82
2024/01/16 02:09:20;;;;;;;7.57;5.00;;;;;;;;;;4989732;28;20184;-85
2024/01/16 02:11:45;;;;;;;9.13;5.00;;;;;;;;;;4986073;28;20204;-84
2024/01/16 02:14:10;;;;;;;6.83;5.07;;;;;;;;;;4986549;28;20254;-84
2024/01/16 02:16:38;;;;;;;8.73;5.23;;;;;;;;;;4987430;28;20216;-85
2024/01/16 02:19:03;;;;;;;8.00;5.53;;;;;;;;;;4990889;28;20180;-84
2024/01/16 02:21:32;;;;;;;8.27;6.13;;;;;;;;;;4987992;28;20188;-83
2024/01/16 02:23:57;;;;;;;8.17;4.57;;;;;;;;;;4981222;28;20176;-84
2024/01/16 02:26:22;;;;;;;6.47;4.70;;;;;;;;;;4982686;28;20188;-84
2024/01/16 02:28:48;;;;;;;9.20;5.00;;;;;;;;;;4987603;28;20181;-84
2024/01/16 02:31:13;;;;;;;7.97;5.60;;;;;;;;;;4978125;28;20191;-81
2024/01/16 02:33:38;;;;;;;7.07;4.90;;;;;;;;;;4991413;28;20268;-83
2024/01/16 02:36:03;;;;;;;10.17;4.50;;;;;;;;;;4993317;28;20195;-85
2024/01/16 02:38:29;;;;;;;8.97;4.67;;;;;;;;;;4983984;28;20304;-84
2024/01/16 02:40:54;;;;;;;6.57;5.10;;;;;;;;;;4998639;28;20184;-83
2024/01/16 02:43:19;;;;;;;10.47;5.37;;;;;;;;;;4982028;28;20181;-85
2024/01/16 02:45:44;;;;;;;7.07;4.50;;;;;;;;;;4989218;28;20208;-84
2024/01/16 02:48:10;;;;;;;9.00;4.93;;;;;;;;;;4988756;28;20210;-84
2024/01/16 02:50:35;;;;;;;9.00;4.43;;;;;;;;;;4983389;28;20176;-83
2024/01/16 02:53:00;;;;;;;9.43;5.37;;;;;;;;;;5005506;28;20176;-84
2024/01/16 02:55:25;;;;;;;6.77;4.63;;;;;;;;;;4982153;28;20211;-82
2024/01/16 02:57:50;;;;;;;6.87;4.83;;;;;;;;;;4991116;28;20230;-84
2024/01/16 03:00:17;;;;;;;11.63;5.73;;;;;;;;;;4985178;28;20185;-84
2024/01/16 03:02:42;;;;;;;6.40;4.40;;;;;;;;;;4983767;28;20176;-84
2024/01/16 03:05:07;;;;;;;7.07;4.37;;;;;;;;;;4985325;28;20189;-83
2024/01/16 03:07:33;;;;;;;8.00;5.07;;;;;;;;;;4984139;28;20187;-84
2024/01/16 03:09:58;;;;;;;5.23;4.30;;;;;;;;;;4990524;28;20195;-84
2024/01/16 03:12:23;;;;;;;5.30;4.10;;;;;;;;;;4989815;28;20208;-84
2024/01/16 03:14:48;;;;;;;6.23;4.93;;;;;;;;;;4980674;28;20270;-83
2024/01/16 03:17:15;;;;;;;5.43;4.40;;;;;;;;;;4981672;28;20286;-84
2024/01/16 03:19:41;;;;;;;6.80;4.93;;;;;;;;;;4986002;28;20189;-84
2024/01/16 03:22:06;;;;;;;7.10;4.27;;;;;;;;;;5004991;28;20242;-83
2024/01/16 03:24:31;;;;;;;7.27;4.57;;;;;;;;;;4988736;28;20238;-83
2024/01/16 03:26:56;;;;;;;7.50;5.30;;;;;;;;;;5007967;28;20184;-84
2024/01/16 03:29:22;;;;;;;6.07;3.90;;;;;;;;;;4988187;28;20216;-84
2024/01/16 03:31:47;;;;;;;7.20;4.90;;;;;;;;;;5005754;28;20215;-84
2024/01/16 03:34:13;;;;;;;5.10;4.03;;;;;;;;;;4981439;28;20212;-84
2024/01/16 03:36:38;;;;;;;5.63;4.13;;;;;;;;;;4988702;28;20207;-84
2024/01/16 03:39:03;;;;;;;7.37;4.70;;;;;;;;;;4988663;28;20176;-83
2024/01/16 03:41:28;;;;;;;7.60;5.00;;;;;;;;;;4983486;28;20211;-84
2024/01/16 03:43:57;;;;;;;7.27;4.60;;;;;;;;;;4989925;28;20199;-81
2024/01/16 03:46:22;;;;;;;7.23;3.90;;;;;;;;;;4985017;28;20226;-84
2024/01/16 03:48:47;;;;;;;4.20;3.77;;;;;;;;;;4986699;28;20219;-84
2024/01/16 03:51:15;;;;;;;7.10;3.40;;;;;;;;;;4988065;28;20187;-84
2024/01/16 03:53:40;;;;;;;7.07;4.07;;;;;;;;;;5003837;28;20183;-83
2024/01/16 03:56:06;;;;;;;6.40;4.43;;;;;;;;;;4976733;28;20216;-84
2024/01/16 03:58:31;;;;;;;5.10;3.80;;;;;;;;;;4989144;28;20191;-84
2024/01/16 04:00:57;;;;;;;20.70;10.80;;;;;;;;;;4989662;28;20187;-84
2024/01/16 04:03:22;;;;;;;5.03;3.77;;;;;;;;;;4990035;28;20179;-83
2024/01/16 04:05:48;;;;;;;5.43;4.27;;;;;;;;;;4989707;28;20191;-84
2024/01/16 04:08:13;;;;;;;5.47;4.30;;;;;;;;;;4992474;28;20258;-83
2024/01/16 04:10:38;;;;;;;6.87;4.43;;;;;;;;;;4984052;28;20179;-82
2024/01/16 04:13:03;;;;;;;5.47;3.83;;;;;;;;;;4992745;28;20192;-83
2024/01/16 04:15:28;;;;;;;7.17;4.33;;;;;;;;;;4990190;28;20231;-84
2024/01/16 04:17:54;;;;;;;11.37;5.10;;;;;;;;;;4991378;28;20179;-84
2024/01/16 04:20:19;;;;;;;10.07;4.83;;;;;;;;;;4987987;28;20242;-84
2024/01/16 04:22:45;;;;;;;9.23;3.80;;;;;;;;;;4992533;28;20196;-83
2024/01/16 04:25:10;;;;;;;5.97;3.77;;;;;;;;;;4990192;28;20203;-84
2024/01/16 04:27:35;;;;;;;5.23;3.10;;;;;;;;;;4990981;28;20253;-83
2024/01/16 04:30:01;;;;;;;7.67;4.60;;;;;;;;;;4989143;28;20199;-83
2024/01/16 04:32:26;;;;;;;7.80;4.83;;;;;;;;;;4992610;28;20275;-84
2024/01/16 04:34:51;;;;;;;8.40;4.67;;;;;;;;;;4993639;28;20253;-84
2024/01/16 04:37:16;;;;;;;6.70;4.20;;;;;;;;;;4992683;28;20191;-84
2024/01/16 04:39:41;;;;;;;8.73;4.83;;;;;;;;;;4991851;28;21307;-83
2024/01/16 04:42:07;;;;;;;6.70;4.40;;;;;;;;;;4991827;28;20183;-83
2024/01/16 04:44:32;;;;;;;5.90;4.70;;;;;;;;;;4985896;28;20181;-83
2024/01/16 04:46:57;;;;;;;6.30;4.13;;;;;;;;;;5006554;28;20176;-83
2024/01/16 04:49:22;;;;;;;6.90;4.27;;;;;;;;;;4991802;28;20188;-83
2024/01/16 04:51:47;;;;;;;7.40;5.10;;;;;;;;;;5005000;28;20180;-84
2024/01/16 04:54:13;;;;;;;9.40;5.97;;;;;;;;;;4991366;28;20211;-83
2024/01/16 04:56:38;;;;;;;11.60;6.33;;;;;;;;;;4991355;28;20271;-83
2024/01/16 04:59:03;;;;;;;7.03;5.30;;;;;;;;;;4990110;28;20283;-82
2024/01/16 05:01:28;;;;;;;9.90;4.93;;;;;;;;;;4984018;28;20181;-84
2024/01/16 05:03:54;;;;;;;6.33;4.13;;;;;;;;;;4984711;28;20169;-83
2024/01/16 05:06:19;;;;;;;8.03;4.57;;;;;;;;;;4983331;28;20187;-82
2024/01/16 05:08:45;;;;;;;6.07;4.00;;;;;;;;;;5001605;28;20180;-83
2024/01/16 05:11:10;;;;;;;6.50;3.47;;;;;;;;;;4982531;28;20191;-83
2024/01/16 05:13:35;;;;;;;6.17;4.87;;;;;;;;;;4992189;28;20180;-83
2024/01/16 05:16:00;;;;;;;7.23;3.27;;;;;;;;;;4984596;28;20239;-82
2024/01/16 05:18:26;;;;;;;8.90;4.87;;;;;;;;;;4984338;28;20204;-82
2024/01/16 05:20:51;;;;;;;7.07;3.90;;;;;;;;;;4992360;28;20168;-83
2024/01/16 05:23:16;;;;;;;10.87;4.33;;;;;;;;;;4991637;28;20190;-83
2024/01/16 05:25:41;;;;;;;4.93;3.27;;;;;;;;;;4989011;28;20184;-83
2024/01/16 05:28:06;;;;;;;6.83;4.10;;;;;;;;;;5006459;28;20319;-83
2024/01/16 05:30:33;;;;;;;8.30;4.63;;;;;;;;;;4982411;28;20180;-82
2024/01/16 05:33:00;;;;;;;5.57;4.40;;;;;;;;;;4986810;28;20187;-83
2024/01/16 05:35:26;;;;;;;8.63;5.43;;;;;;;;;;4981886;28;20232;-83
2024/01/16 05:37:51;;;;;;;7.80;4.50;;;;;;;;;;4985202;28;20180;-83
2024/01/16 05:40:16;;;;;;;7.47;4.60;;;;;;;;;;4989050;28;20230;-83
2024/01/16 05:42:41;;;;;;;7.50;4.27;;;;;;;;;;4987731;28;20270;-84
2024/01/16 05:45:07;;;;;;;8.13;5.73;;;;;;;;;;5006778;28;20234;-83
2024/01/16 05:47:32;;;;;;;7.73;5.40;;;;;;;;;;4989993;28;20184;-83
2024/01/16 05:49:57;;;;;;;10.90;6.80;;;;;;;;;;4990918;28;20188;-83
2024/01/16 05:52:23;;;;;;;9.40;5.50;;;;;;;;;;4990155;28;20183;-83
2024/01/16 05:54:48;;;;;;;11.67;7.47;;;;;;;;;;4987355;28;20263;-83
2024/01/16 05:57:13;;;;;;;10.20;5.03;;;;;;;;;;4989953;28;20266;-83
2024/01/16 05:59:38;;;;;;;11.57;5.90;;;;;;;;;;4996025;28;20184;-83
2024/01/16 06:02:04;;;;;;;10.10;6.73;;;;;;;;;;4986872;28;20191;-83
2024/01/16 06:04:29;;;;;;;36.07;16.33;;;;;;;;;;4987759;28;20357;-75
2024/01/16 06:06:54;;;;;;;9.20;6.40;;;;;;;;;;4988524;28;20207;-75
2024/01/16 06:09:19;;;;;;;11.73;7.33;;;;;;;;;;4984538;28;20363;-75
2024/01/16 06:11:44;;;;;;;9.87;6.13;;;;;;;;;;4987553;28;20204;-74
2024/01/16 06:14:11;;;;;;;9.73;5.13;;;;;;;;;;4988238;28;20176;-76
2024/01/16 06:16:37;;;;;;;9.90;6.50;;;;;;;;;;4991449;28;20228;-76
2024/01/16 06:19:02;;;;;;;9.50;6.50;;;;;;;;;;4986196;28;20183;-75
2024/01/16 06:21:27;;;;;;;13.93;7.70;;;;;;;;;;4989574;28;20176;-76
2024/01/16 06:23:52;;;;;;;10.63;6.20;;;;;;;;;;4986942;28;20179;-75
2024/01/16 06:26:18;;;;;;;6.87;5.17;;;;;;;;;;4989506;28;20218;-76
2024/01/16 06:28:43;;;;;;;8.17;5.77;;;;;;;;;;4987991;28;20216;-76
2024/01/16 06:31:11;;;;;;;14.70;7.33;;;;;;;;;;4991075;28;20199;-76
2024/01/16 06:33:37;;;;;;;11.47;6.27;;;;;;;;;;4985176;28;20188;-76
2024/01/16 06:36:04;;;;;;;7.30;5.23;;;;;;;;;;4985393;28;20389;-76
2024/01/16 06:38:29;;;;;;;7.30;5.90;;;;;;;;;;4987307;28;20214;-75
2024/01/16 06:40:54;;;;;;;8.93;6.30;;;;;;;;;;4990161;28;20203;-76
2024/01/16 06:43:19;;;;;;;11.80;7.47;;;;;;;;;;4984475;28;20244;-76
2024/01/16 06:45:45;;;;;;;30.53;11.37;;;;;;;;;;4985791;28;20172;-76
2024/01/16 06:48:10;;;;;;;18.07;9.03;;;;;;;;;;4983120;28;20184;-75
2024/01/16 06:50:35;;;;;;;9.90;5.43;;;;;;;;;;4991227;28;20187;-75
2024/01/16 06:53:01;;;;;;;11.03;7.63;;;;;;;;;;4990407;28;20195;-76
2024/01/16 06:55:26;;;;;;;12.43;6.97;;;;;;;;;;4986408;28;20233;-75
2024/01/16 06:57:51;;;;;;;10.80;7.50;;;;;;;;;;4989456;28;20176;-76
2024/01/16 07:00:16;;;;;;;13.87;6.10;;;;;;;;;;4988574;28;20184;-75
2024/01/16 07:02:45;;;;;;;14.10;8.10;;;;;;;;;;4988107;28;20330;-75
2024/01/16 07:05:11;;;;;;;10.33;5.20;;;;;;;;;;4990243;28;20180;-76
2024/01/16 07:07:36;;;;;;;9.47;4.87;;;;;;;;;;4991965;28;20180;-76
2024/01/16 07:10:02;;;;;;;11.57;6.50;;;;;;;;;;4987978;28;20178;-76
2024/01/16 07:12:27;;;;;;;5.30;3.53;;;;;;;;;;4988955;28;20352;-76
2024/01/16 07:14:52;;;;;;;8.27;5.23;;;;;;;;;;4983232;28;20283;-75
2024/01/16 07:17:17;;;;;;;6.23;4.03;;;;;;;;;;4990615;28;20234;-76
2024/01/16 07:19:43;;;;;;;6.53;3.93;;;;;;;;;;4985741;28;20181;-75
2024/01/16 07:22:08;;;;;;;10.80;4.10;;;;;;;;;;4989235;28;20168;-76
2024/01/16 07:24:33;;;;;;;8.17;4.47;;;;;;;;;;4989980;28;20188;-76
2024/01/16 07:26:58;;;;;;;4.50;3.57;;;;;;;;;;4988773;28;20271;-75
2024/01/16 07:29:23;;;;;;;9.67;4.37;;;;;;;;;;4989537;28;20172;-75
2024/01/16 07:31:49;;;;;;;8.17;4.37;;;;;;;;;;4984055;28;20181;-75
2024/01/16 07:34:19;;;;;;;7.33;3.73;;;;;;;;;;4982978;28;20180;-76
2024/01/16 07:36:44;;;;;;;3.43;3.10;;;;;;;;;;4986695;28;20184;-76
2024/01/16 07:39:10;;;;;;;5.53;3.53;;;;;;;;;;4989541;28;20168;-76
2024/01/16 07:41:35;;;;;;;4.33;3.07;;;;;;;;;;4988652;28;20184;-75
2024/01/16 07:44:00;;;;;;;5.27;3.20;;;;;;;;;;4989454;28;20176;-76
2024/01/16 07:46:25;;;;;;;6.03;3.60;;;;;;;;;;4983465;28;20177;-76
2024/01/16 07:48:51;;;;;;;5.80;3.80;;;;;;;;;;4989934;28;20175;-76
2024/01/16 07:51:16;;;;;;;9.73;4.57;;;;;;;;;;4989499;28;20267;-76
2024/01/16 07:53:41;;;;;;;6.23;3.07;;;;;;;;;;4979640;28;20240;-76
2024/01/16 07:56:06;;;;;;;4.03;3.43;;;;;;;;;;4988621;28;20223;-76
2024/01/16 07:58:31;;;;;;;7.77;3.60;;;;;;;;;;4987823;28;20184;-76
2024/01/16 08:00:57;;;;;;;4.63;3.07;;;;;;;;;;4988935;28;20176;-75
2024/01/16 08:03:22;;;;;;;4.47;2.90;;;;;;;;;;4990390;28;20179;-76
2024/01/16 08:05:47;;;;;;;6.20;3.27;;;;;;;;;;4988935;28;20177;-76
2024/01/16 08:08:12;;;;;;;8.70;4.13;;;;;;;;;;4990142;28;20212;-76
2024/01/16 08:10:38;;;;;;;6.40;4.50;;;;;;;;;;4982799;28;20220;-77
2024/01/16 08:13:03;;;;;;;5.20;2.83;;;;;;;;;;4989103;28;20283;-76
2024/01/16 08:15:28;;;;;;;5.70;3.93;;;;;;;;;;4987520;28;20224;-76
2024/01/16 08:17:53;;;;;;;5.10;3.37;;;;;;;;;;5004961;28;20228;-76
2024/01/16 08:20:19;;;;;;;6.10;4.13;;;;;;;;;;4988329;28;20215;-76
2024/01/16 08:22:44;;;;;;;5.80;3.90;;;;;;;;;;4987811;28;20184;-77
2024/01/16 08:25:09;;;;;;;7.37;4.87;;;;;;;;;;4983013;28;20240;-75
2024/01/16 08:27:34;;;;;;;6.07;4.17;;;;;;;;;;4988271;28;20199;-76
2024/01/16 08:30:00;;;;;;;4.43;3.77;;;;;;;;;;4988681;28;20185;-76
2024/01/16 08:32:25;;;;;;;14.43;7.87;;;;;;;;;;4991029;28;20263;-75
2024/01/16 08:34:51;;;;;;;7.57;4.77;;;;;;;;;;4988209;28;20291;-76
2024/01/16 08:37:16;;;;;;;6.50;4.67;;;;;;;;;;4987273;28;20195;-76
2024/01/16 08:39:41;;;;;;;7.37;5.30;;;;;;;;;;4986173;28;20200;-75
2024/01/16 08:42:07;;;;;;;4.57;3.67;;;;;;;;;;4988956;28;20164;-76
2024/01/16 08:44:32;;;;;;;5.00;3.57;;;;;;;;;;4989838;28;20266;-76
2024/01/16 08:46:59;;;;;;;6.23;3.87;;;;;;;;;;4982295;28;20177;-76
2024/01/16 08:49:24;;;;;;;9.03;4.43;;;;;;;;;;4983020;28;20212;-76
2024/01/16 08:51:49;;;;;;;5.00;4.13;;;;;;;;;;4988101;28;20266;-76
2024/01/16 08:54:14;;;;;;;7.70;4.07;;;;;;;;;;4989806;28;20319;-76
2024/01/16 08:56:40;;;;;;;13.97;7.57;;;;;;;;;;4991780;28;20179;-76
2024/01/16 08:59:05;;;;;;;8.60;5.33;;;;;;;;;;4992243;28;20176;-76
2024/01/16 09:01:30;;;;;;;9.70;6.00;;;;;;;;;;4984876;28;20202;-76
2024/01/16 09:03:55;;;;;;;7.27;4.67;;;;;;;;;;4991749;28;20176;-76
2024/01/16 09:06:21;;;;;;;6.13;4.60;;;;;;;;;;4998044;28;20175;-77
2024/01/16 09:08:46;;;;;;;9.70;5.70;;;;;;;;;;4993321;28;20243;-77
2024/01/16 09:11:12;;;;;;;8.83;4.97;;;;;;;;;;4992973;28;20211;-77
2024/01/16 09:13:40;;;;;;;8.80;5.30;;;;;;;;;;4991733;28;20231;-77
2024/01/16 09:16:05;;;;;;;7.93;5.60;;;;;;;;;;4985962;28;20224;-76
2024/01/16 09:18:30;;;;;;;8.47;4.60;;;;;;;;;;4984015;28;20231;-77
2024/01/16 09:20:56;;;;;;;6.20;4.07;;;;;;;;;;4988651;28;20168;-76
2024/01/16 09:23:22;;;;;;;7.13;4.93;;;;;;;;;;4994770;28;20180;-76
2024/01/16 09:25:47;;;;;;;16.10;8.60;;;;;;;;;;4990717;28;20233;-76
2024/01/16 09:28:12;;;;;;;11.87;6.87;;;;;;;;;;4981646;28;20181;-75
2024/01/16 09:30:37;;;;;;;14.47;8.27;;;;;;;;;;4990541;28;20184;-77
2024/01/16 09:33:06;;;;;;;11.67;5.53;;;;;;;;;;4986228;28;20183;-76
2024/01/16 09:35:31;;;;;;;6.17;4.13;;;;;;;;;;4989157;28;20200;-77
2024/01/16 09:37:56;;;;;;;6.47;4.07;;;;;;;;;;4986135;28;20184;-76
2024/01/16 09:40:22;;;;;;;6.27;4.87;;;;;;;;;;4988542;28;20180;-76
2024/01/16 09:42:47;;;;;;;9.20;4.83;;;;;;;;;;4992387;28;20204;-76
2024/01/16 09:45:18;;;;;;;7.13;5.30;;;;;;;;;;5007280;28;20186;-77
2024/01/16 09:47:44;;;;;;;6.40;3.83;;;;;;;;;;4985285;28;20180;-77
2024/01/16 09:50:10;;;;;;;20.03;17.90;;;;;;;;;;4977346;28;20617;-76
2024/01/16 09:52:35;;;;;;;9.97;5.00;;;;;;;;;;4986585;28;20189;-77
2024/01/16 09:55:01;;;;;;;22.47;10.33;;;;;;;;;;4987633;28;20203;-76
2024/01/16 09:57:26;;;;;;;5.27;3.60;;;;;;;;;;4992031;28;20176;-77
2024/01/16 09:59:51;;;;;;;31.07;14.20;;;;;;;;;;4988697;28;20177;-77
2024/01/16 10:02:18;;;;;;;17.80;8.73;;;;;;;;;;4989391;28;20180;-77
2024/01/16 10:04:44;;;;;;;8.30;4.90;;;;;;;;;;4990069;28;20215;-77
2024/01/16 10:07:14;;;;;;;18.77;8.40;;;;;;;;;;4988997;28;20200;-77
2024/01/16 10:09:39;;;;;;;18.83;8.27;;;;;;;;;;4983066;28;20176;-77
2024/01/16 10:12:05;;;;;;;4.20;3.00;;;;;;;;;;4988758;28;20206;-77
2024/01/16 10:14:30;;;;;;;6.20;4.40;;;;;;;;;;4987939;28;20251;-77
2024/01/16 10:16:59;;;;;;;9.20;4.67;;;;;;;;;;4988559;28;20242;-77
2024/01/16 10:19:24;;;;;;;13.23;5.40;;;;;;;;;;4987529;28;20184;-78
2024/01/16 10:21:51;;;;;;;9.33;4.27;;;;;;;;;;4988002;28;20203;-78
2024/01/16 10:24:16;;;;;;;5.47;3.13;;;;;;;;;;4985418;28;20265;-78
2024/01/16 10:26:41;;;;;;;5.10;3.67;;;;;;;;;;4985701;28;20271;-78
2024/01/16 10:29:06;;;;;;;9.83;5.10;;;;;;;;;;4990000;28;20176;-78
2024/01/16 10:31:31;;;;;;;4.70;3.27;;;;;;;;;;5006811;28;20184;-78
2024/01/16 10:33:57;;;;;;;5.13;2.60;;;;;;;;;;4990881;28;20195;-78
2024/01/16 10:36:23;;;;;;;5.97;3.90;;;;;;;;;;4988692;28;20210;-77
2024/01/16 10:38:54;;;;;;;5.80;3.63;;;;;;;;;;4998089;28;20327;-79
2024/01/16 10:41:24;;;;;;;7.27;3.57;;;;;;;;;;4984902;28;20635;-80
2024/01/16 10:44:02;;;;;;;5.93;3.50;;;;;;;;;;4988384;28;20180;-79
2024/01/16 10:46:28;;;;;;;6.13;3.53;;;;;;;;;;4986612;28;20188;-78
2024/01/16 10:49:00;;;;;;;8.23;4.00;;;;;;;;;;4990455;28;20263;-80
2024/01/16 10:51:26;;;;;;;6.27;3.30;;;;;;;;;;4991118;28;20201;-80
2024/01/16 10:53:55;;;;;;;38.83;16.90;;;;;;;;;;4989475;28;20184;-79
2024/01/16 10:56:20;;;;;;;15.20;7.77;;;;;;;;;;4983680;28;20200;-78
2024/01/16 10:58:48;;;;;;;52.83;30.10;;;;;;;;;;4985255;28;20182;-80
2024/01/16 11:01:15;;;;;;;7.90;4.73;;;;;;;;;;4983795;28;20180;-79
2024/01/16 11:03:50;;;;;;;6.50;3.60;;;;;;;;;;4985280;28;20209;-78
2024/01/16 11:06:16;;;;;;;8.20;4.90;;;;;;;;;;4976997;28;20200;-79
2024/01/16 11:08:42;;;;;;;6.10;3.93;;;;;;;;;;4985684;28;20215;-80
2024/01/16 11:11:07;;;;;;;19.57;13.83;;;;;;;;;;5004956;28;20192;-79
2024/01/16 11:13:34;;;;;;;9.90;5.90;;;;;;;;;;4989964;28;20214;-79
2024/01/16 11:15:59;;;;;;;7.00;3.37;;;;;;;;;;4983508;28;20228;-78
2024/01/16 11:18:26;;;;;;;5.97;4.03;;;;;;;;;;4989307;28;20420;-77
2024/01/16 11:20:51;;;;;;;4.77;3.40;;;;;;;;;;4985393;28;20240;-77
2024/01/16 11:23:16;;;;;;;3.77;2.57;;;;;;;;;;4984418;28;20184;-77
2024/01/16 11:25:42;;;;;;;6.13;3.90;;;;;;;;;;4988878;28;20180;-77
2024/01/16 11:28:08;;;;;;;2.83;1.87;;;;;;;;;;4987638;28;20188;-77
2024/01/16 11:30:34;;;;;;;3.63;2.27;;;;;;;;;;4989495;28;20181;-78
2024/01/16 11:32:59;;;;;;;5.37;3.17;;;;;;;;;;5001389;28;20209;-76
2024/01/16 11:35:38;;;;;;;3.37;2.33;;;;;;;;;;4988580;28;20627;-78
2024/01/16 11:38:04;;;;;;;3.93;2.27;;;;;;;;;;4982760;28;20240;-78
2024/01/16 11:40:32;;;;;;;4.50;2.80;;;;;;;;;;4999069;28;20276;-77
2024/01/16 11:42:57;;;;;;;4.93;2.50;;;;;;;;;;4988041;28;20173;-78
2024/01/16 11:45:31;;;;;;;5.17;2.33;;;;;;;;;;4987425;28;20267;-78
2024/01/16 11:48:11;;;;;;;3.67;2.67;;;;;;;;;;4979720;28;20259;-79
2024/01/16 11:50:37;;;;;;;4.63;2.73;;;;;;;;;;4978465;28;20181;-79
2024/01/16 11:53:02;;;;;;;2.53;1.90;;;;;;;;;;4988482;28;20185;-79
2024/01/16 11:55:31;;;;;;;6.07;2.63;;;;;;;;;;4986249;28;20200;-78
2024/01/16 11:58:20;;;;;;;3.77;2.53;;;;;;;;;;4979749;28;20199;-78
2024/01/16 12:00:47;;;;;;;3.60;2.60;;;;;;;;;;4974178;28;20184;-78
2024/01/16 12:03:16;;;;;;;3.83;2.40;;;;;;;;;;4989256;28;20219;-78
2024/01/16 12:05:43;;;;;;;7.07;2.97;;;;;;;;;;4984194;28;20210;-78
2024/01/16 12:08:09;;;;;;;3.20;1.97;;;;;;;;;;4988130;28;20188;-78
2024/01/16 12:10:45;;;;;;;2.37;2.17;;;;;;;;;;4987579;28;20184;-78
2024/01/16 12:13:12;;;;;;;2.47;1.73;;;;;;;;;;4989861;28;20210;-77
2024/01/16 12:15:37;;;;;;;3.73;2.33;;;;;;;;;;4980392;28;20258;-77
2024/01/16 12:18:03;;;;;;;6.03;2.23;;;;;;;;;;4989147;28;20273;-77
2024/01/16 12:20:32;;;;;;;4.30;2.60;;;;;;;;;;4989094;28;20186;-77
2024/01/16 12:22:59;;;;;;;5.27;2.03;;;;;;;;;;4988976;28;20194;-75
2024/01/16 12:25:24;;;;;;;5.00;2.40;;;;;;;;;;4989844;28;20186;-77
2024/01/16 12:28:02;;;;;;;2.77;2.17;;;;;;;;;;4987937;28;20185;-77
2024/01/16 12:30:31;;;;;;;2.60;2.30;;;;;;;;;;4992820;28;20188;-77
2024/01/16 12:33:02;;;;;;;7.00;3.10;;;;;;;;;;4989848;28;20185;-77
2024/01/16 12:35:27;;;;;;;5.30;3.07;;;;;;;;;;4987486;28;20479;-78
2024/01/16 12:38:05;;;;;;;6.87;5.60;;;;;;;;;;4991303;28;20181;-77
2024/01/16 12:40:30;;;;;;;5.33;3.23;;;;;;;;;;4989271;28;20192;-78
2024/01/16 12:42:55;;;;;;;4.60;2.33;;;;;;;;;;4986150;28;20189;-77
2024/01/16 12:45:21;;;;;;;3.33;2.80;;;;;;;;;;4988501;28;20189;-78
2024/01/16 12:47:51;;;;;;;2.93;2.30;;;;;;;;;;4986548;28;20187;-77
2024/01/16 12:50:23;;;;;;;4.47;4.03;;;;;;;;;;4991159;28;20265;-77
2024/01/16 12:53:02;;;;;;;4.47;1.83;;;;;;;;;;4988457;28;20205;-78
2024/01/16 12:55:27;;;;;;;3.00;2.70;;;;;;;;;;4990657;28;20292;-78
2024/01/16 12:58:10;;;;;;;2.90;2.30;;;;;;;;;;4984411;28;20209;-78
2024/01/16 13:00:36;;;;;;;6.47;3.90;;;;;;;;;;4989993;28;20180;-78
2024/01/16 13:03:01;;;;;;;7.23;3.50;;;;;;;;;;5007947;28;20189;-78
2024/01/16 13:05:26;;;;;;;5.27;3.03;;;;;;;;;;4993038;28;20262;-78
2024/01/16 13:08:04;;;;;;;5.17;2.83;;;;;;;;;;4989741;28;20267;-78
2024/01/16 13:10:30;;;;;;;3.33;2.70;;;;;;;;;;4983929;28;20184;-78
2024/01/16 13:13:11;;;;;;;3.03;2.70;;;;;;;;;;4992314;28;20207;-78
2024/01/16 13:15:37;;;;;;;4.30;2.60;;;;;;;;;;4992317;28;20321;-77
2024/01/16 13:18:02;;;;;;;2.90;2.40;;;;;;;;;;4987234;28;20280;-78
2024/01/16 13:20:27;;;;;;;3.07;2.70;;;;;;;;;;4987983;28;20184;-78
2024/01/16 13:22:52;;;;;;;4.27;2.87;;;;;;;;;;4997482;28;20193;-78
2024/01/16 13:25:17;;;;;;;3.93;2.90;;;;;;;;;;4987976;28;20182;-78
2024/01/16 13:27:43;;;;;;;4.20;2.87;;;;;;;;;;4990801;28;20216;-78
2024/01/16 13:30:08;;;;;;;11.03;6.37;;;;;;;;;;4987338;28;20178;-78
2024/01/16 13:32:36;;;;;;;6.90;3.60;;;;;;;;;;4989130;28;20177;-77
2024/01/16 13:35:07;;;;;;;6.53;3.07;;;;;;;;;;4990821;28;20207;-78
2024/01/16 13:37:32;;;;;;;3.83;3.10;;;;;;;;;;4990337;28;20187;-78
2024/01/16 13:39:57;;;;;;;10.33;6.90;;;;;;;;;;4987528;28;20270;-77
2024/01/16 13:42:22;;;;;;;4.37;2.90;;;;;;;;;;4989759;28;20175;-78
2024/01/16 13:44:47;;;;;;;4.20;3.40;;;;;;;;;;4985738;28;20184;-77
2024/01/16 13:47:14;;;;;;;7.70;5.40;;;;;;;;;;4987018;28;20261;-78
2024/01/16 13:49:40;;;;;;;5.80;3.90;;;;;;;;;;4987888;28;20242;-78
2024/01/16 13:52:05;;;;;;;5.13;3.60;;;;;;;;;;4982623;28;20180;-78
2024/01/16 13:54:31;;;;;;;6.13;3.10;;;;;;;;;;4988544;28;20195;-77
2024/01/16 13:56:56;;;;;;;15.97;9.67;;;;;;;;;;4983263;28;20186;-79
2024/01/16 13:59:21;;;;;;;11.70;6.87;;;;;;;;;;4987416;28;20214;-78
2024/01/16 14:01:46;;;;;;;4.40;2.77;;;;;;;;;;4991407;28;20267;-79
2024/01/16 14:04:12;;;;;;;3.97;3.03;;;;;;;;;;4990352;28;20183;-77
2024/01/16 14:06:37;;;;;;;4.53;2.97;;;;;;;;;;4984703;28;20266;-75
2024/01/16 14:09:02;;;;;;;4.43;3.47;;;;;;;;;;4989765;28;20251;-77
2024/01/16 14:11:28;;;;;;;5.57;3.60;;;;;;;;;;4988193;28;20203;-77
2024/01/16 14:13:54;;;;;;;9.83;7.40;;;;;;;;;;4982225;28;20180;-79
2024/01/16 14:16:19;;;;;;;3.47;2.80;;;;;;;;;;5004892;28;20260;-78
2024/01/16 14:18:45;;;;;;;4.10;3.70;;;;;;;;;;4989281;28;20215;-78
2024/01/16 14:21:10;;;;;;;4.93;3.73;;;;;;;;;;5000075;28;20207;-77
2024/01/16 14:23:35;;;;;;;4.87;3.23;;;;;;;;;;4990545;28;20234;-79
2024/01/16 14:26:00;;;;;;;4.13;2.90;;;;;;;;;;4985191;28;20188;-78
2024/01/16 14:28:27;;;;;;;4.60;2.70;;;;;;;;;;4990605;28;20199;-79
2024/01/16 14:30:52;;;;;;;3.90;2.83;;;;;;;;;;4988256;28;20188;-79
2024/01/16 14:33:17;;;;;;;3.33;2.73;;;;;;;;;;4986069;28;20181;-79